Time;durP1;ratioP1;P1;durP2;ratioP2;P2;SDS_P1;SDS_P2;PMS_P1;PMS_P2;Temp;Humidity;BMP_temperature;BMP_pressure;BME280_temperature;BME280_humidity;BME280_pressure;Samples;Min_cycle;Max_cycle;Signal;HPM_P1;HPM_P2
2023/10/10 00:01:17;;;;;;;4.93;1.80;;;;;;;15.34;100.00;101030.97;5196795;28;20056;-72
2023/10/10 00:03:49;;;;;;;4.82;2.10;;;;;;;15.37;100.00;101035.25;5193963;28;20017;-72
2023/10/10 00:06:22;;;;;;;3.47;1.83;;;;;;;15.29;100.00;101038.25;5190500;28;20403;-72
2023/10/10 00:08:57;;;;;;;6.75;2.42;;;;;;;15.36;100.00;101034.38;5196225;28;20184;-73
2023/10/10 00:11:27;;;;;;;4.77;2.03;;;;;;;15.29;100.00;101040.88;5192029;28;20021;-72
2023/10/10 00:14:06;;;;;;;3.97;2.05;;;;;;;15.33;100.00;101037.16;5193834;28;20030;-72
2023/10/10 00:16:40;;;;;;;5.78;2.03;;;;;;;15.38;100.00;101043.06;5187768;28;20022;-72
2023/10/10 00:21:57;;;;;;;6.18;2.28;;;;;;;15.32;100.00;101035.47;5191663;28;20025;-72
2023/10/10 00:24:33;;;;;;;4.93;1.83;;;;;;;15.32;100.00;101035.47;5194601;28;20032;-73
2023/10/10 00:27:23;;;;;;;4.45;1.92;;;;;;;15.30;100.00;101029.41;5196512;28;20083;-71
2023/10/10 00:29:53;;;;;;;5.63;2.67;;;;;;;15.26;100.00;101037.50;5176381;28;20534;-72
2023/10/10 00:32:25;;;;;;;8.32;3.08;;;;;;;15.23;100.00;101041.16;5194896;28;20036;-71
2023/10/10 00:34:56;;;;;;;11.63;2.78;;;;;;;15.35;100.00;101032.69;5192963;28;20153;-72
2023/10/10 00:37:29;;;;;;;12.15;3.22;;;;;;;15.34;100.00;101038.03;5175102;28;20109;-72
2023/10/10 00:40:03;;;;;;;8.35;3.17;;;;;;;15.35;100.00;101043.22;5196588;28;20064;-72
2023/10/10 00:42:37;;;;;;;9.35;2.95;;;;;;;15.27;100.00;101040.06;5192276;28;20041;-72
2023/10/10 00:45:12;;;;;;;8.15;3.05;;;;;;;15.41;100.00;101032.41;5178180;28;20125;-71
2023/10/10 00:47:48;;;;;;;6.85;3.20;;;;;;;15.41;100.00;101027.13;5194428;28;20338;-71
2023/10/10 00:50:20;;;;;;;9.15;2.95;;;;;;;15.35;100.00;101022.16;5175807;28;20495;-72
2023/10/10 00:53:00;;;;;;;7.28;2.58;;;;;;;15.40;100.00;101024.56;5174570;28;20048;-72
2023/10/10 00:55:33;;;;;;;5.95;2.80;;;;;;;15.30;100.00;101010.97;5175143;28;20117;-72
2023/10/10 00:58:04;;;;;;;6.50;2.58;;;;;;;15.34;100.00;101009.06;5193765;28;20029;-72
2023/10/10 01:00:35;;;;;;;5.47;2.53;;;;;;;15.40;100.00;101008.75;5190738;28;20087;-72
2023/10/10 01:03:24;;;;;;;6.93;2.70;;;;;;;15.43;100.00;101012.09;5177257;28;20514;-71
2023/10/10 01:05:58;;;;;;;5.35;2.70;;;;;;;15.43;100.00;101013.88;5176080;28;20148;-72
2023/10/10 01:08:48;;;;;;;7.40;2.58;;;;;;;15.31;100.00;101002.16;5194380;28;20029;-72
2023/10/10 01:11:19;;;;;;;8.13;2.75;;;;;;;15.34;100.00;101009.91;5191232;28;20505;-73
2023/10/10 01:13:56;;;;;;;5.95;2.72;;;;;;;15.25;100.00;101010.31;5190296;28;20092;-72
2023/10/10 01:16:27;;;;;;;4.47;2.35;;;;;;;15.23;100.00;101000.78;5177173;28;20721;-72
2023/10/10 01:18:57;;;;;;;4.10;2.13;;;;;;;15.25;100.00;100999.78;5195007;28;20029;-72
2023/10/10 01:21:32;;;;;;;6.32;2.33;;;;;;;15.24;100.00;100998.09;5174644;28;20497;-72
2023/10/10 01:24:06;;;;;;;8.15;2.50;;;;;;;15.20;100.00;100995.66;5194417;28;20135;-73
2023/10/10 01:26:37;;;;;;;5.60;2.13;;;;;;;15.21;100.00;100995.56;5177405;28;20025;-73
2023/10/10 01:29:18;;;;;;;4.65;2.13;;;;;;;15.25;100.00;100997.16;5192946;28;20029;-72
2023/10/10 01:31:51;;;;;;;3.92;2.28;;;;;;;15.25;100.00;100997.16;5194325;28;20025;-72
2023/10/10 01:34:43;;;;;;;4.28;2.17;;;;;;;15.22;100.00;100993.81;5177789;28;20075;-72
2023/10/10 01:37:27;;;;;;;6.20;2.35;;;;;;;15.22;100.00;100999.91;5193103;28;20036;-72
2023/10/10 01:40:11;;;;;;;5.53;2.10;;;;;;;15.23;100.00;100998.16;5195419;28;20482;-73
2023/10/10 01:42:51;;;;;;;11.77;2.60;;;;;;;15.14;100.00;100999.44;5176419;28;20092;-72
2023/10/10 01:45:23;;;;;;;5.78;2.45;;;;;;;15.15;100.00;100998.50;5177549;28;20174;-72
2023/10/10 01:47:57;;;;;;;7.13;2.85;;;;;;;15.13;100.00;100992.47;5176425;28;20017;-73
2023/10/10 01:50:30;;;;;;;6.03;2.53;;;;;;;15.20;100.00;101001.78;5191118;28;20084;-72
2023/10/10 01:53:00;;;;;;;8.05;2.50;;;;;;;15.16;100.00;100997.59;5193132;28;20048;-73
2023/10/10 01:55:31;;;;;;;6.15;2.60;;;;;;;15.11;100.00;100998.72;5196759;28;20029;-72
2023/10/10 01:58:02;;;;;;;8.98;2.70;;;;;;;15.15;100.00;100992.41;5180399;28;20037;-72
2023/10/10 02:00:34;;;;;;;5.35;2.28;;;;;;;15.15;100.00;100989.78;5180852;28;20442;-72
2023/10/10 02:03:06;;;;;;;6.63;2.58;;;;;;;15.10;100.00;101003.16;5179257;28;20403;-72
2023/10/10 02:08:17;;;;;;;11.68;2.35;;;;;;;15.17;100.00;100998.44;5199553;28;20128;-73
2023/10/10 02:10:49;;;;;;;5.68;2.05;;;;;;;15.21;100.00;101003.47;5196255;28;20021;-72
2023/10/10 02:13:20;;;;;;;6.25;1.98;;;;;;;15.09;100.00;100988.28;5180128;28;20057;-72
2023/10/10 02:15:51;;;;;;;5.85;2.28;;;;;;;15.10;100.00;100981.22;5179605;28;20541;-72
2023/10/10 02:18:37;;;;;;;5.88;2.08;;;;;;;15.17;100.00;100986.13;5179609;28;20025;-72
2023/10/10 02:21:15;;;;;;;5.45;2.15;;;;;;;15.02;100.00;100981.56;5180099;28;20021;-72
2023/10/10 02:23:46;;;;;;;5.05;1.83;;;;;;;15.04;100.00;100982.34;5196097;28;20120;-72
2023/10/10 02:26:35;;;;;;;4.05;1.90;;;;;;;15.12;100.00;100974.97;5180882;28;20112;-72
2023/10/10 02:29:21;;;;;;;8.20;2.10;;;;;;;15.15;100.00;100980.06;5194721;28;20037;-72
2023/10/10 02:32:06;;;;;;;5.78;2.00;;;;;;;15.06;100.00;100983.16;5197081;28;20025;-72
2023/10/10 02:34:36;;;;;;;3.88;1.90;;;;;;;15.00;100.00;100988.69;5181197;28;20029;-72
2023/10/10 02:37:54;;;;;;;5.22;1.85;;;;;;;15.01;100.00;100987.78;5198542;28;20399;-73
2023/10/10 02:40:42;;;;;;;8.55;1.98;;;;;;;15.04;100.00;100990.25;5188896;28;20615;-72
2023/10/10 02:45:45;;;;;;;5.10;2.20;;;;;;;15.14;100.00;100985.41;5196542;28;20107;-71
2023/10/10 02:48:21;;;;;;;3.83;1.67;;;;;;;15.12;100.00;100982.88;5197058;28;20034;-71
2023/10/10 02:50:52;;;;;;;7.75;2.13;;;;;;;15.03;100.00;100993.81;5198106;28;20116;-72
2023/10/10 02:53:22;;;;;;;8.00;2.00;;;;;;;15.03;100.00;100993.81;5179211;28;20113;-72
2023/10/10 02:55:52;;;;;;;12.20;2.33;;;;;;;15.02;100.00;100997.38;5174597;28;20505;-72
2023/10/10 02:58:27;;;;;;;8.85;2.50;;;;;;;15.04;100.00;100997.31;5196330;28;20312;-72
2023/10/10 03:00:58;;;;;;;7.60;2.15;;;;;;;15.07;100.00;100999.78;5197969;28;20037;-72
2023/10/10 03:03:28;;;;;;;4.18;2.22;;;;;;;15.12;100.00;101008.31;5177399;28;20055;-72
2023/10/10 03:05:58;;;;;;;7.30;2.35;;;;;;;15.15;100.00;101009.03;5196852;28;20104;-73
2023/10/10 03:08:35;;;;;;;4.68;2.42;;;;;;;15.06;100.00;101004.22;5177079;28;20021;-72
2023/10/10 03:11:34;;;;;;;6.18;2.47;;;;;;;15.16;100.00;101004.66;5194857;28;20864;-72
2023/10/10 03:14:08;;;;;;;9.88;2.38;;;;;;;15.06;100.00;101008.63;5197822;28;20288;-72
2023/10/10 03:16:41;;;;;;;5.97;2.15;;;;;;;15.15;100.00;101006.41;5196937;28;20589;-72
2023/10/10 03:19:14;;;;;;;5.65;2.25;;;;;;;15.20;100.00;101008.84;5197693;28;20044;-72
2023/10/10 03:29:47;;;;;;;7.22;2.78;;;;;;;15.12;100.00;101019.72;5184659;28;20091;-72
2023/10/10 03:32:47;;;;;;;5.15;2.00;;;;;;;15.04;100.00;101015.75;5184875;28;20437;-72
2023/10/10 03:35:34;;;;;;;5.57;2.50;;;;;;;15.09;100.00;101014.59;5167514;28;20025;-72
2023/10/10 03:38:26;;;;;;;5.75;2.10;;;;;;;15.08;100.00;101007.63;5185166;28;20111;-72
2023/10/10 05:25:21;;;;;;;5.25;2.42;;;;;;;15.05;100.00;101009.56;5183025;28;20033;-72
2023/10/10 05:27:58;;;;;;;5.15;2.58;;;;;;;15.07;100.00;101013.84;5187090;28;20494;-72
2023/10/10 05:30:39;;;;;;;7.50;2.50;;;;;;;15.06;100.00;101004.22;5171303;28;20116;-72
2023/10/10 05:33:10;;;;;;;8.30;2.28;;;;;;;15.08;100.00;101006.78;5192762;28;20086;-72
2023/10/10 05:35:47;;;;;;;6.38;2.65;;;;;;;15.06;100.00;101004.22;5190787;28;20033;-73
2023/10/10 05:38:19;;;;;;;6.38;2.33;;;;;;;15.13;100.00;101000.38;5188813;28;20030;-72
2023/10/10 05:40:51;;;;;;;4.68;2.13;;;;;;;15.08;100.00;101004.13;5190895;28;20112;-72
2023/10/10 05:43:31;;;;;;;4.60;2.28;;;;;;;15.08;100.00;100989.22;5193114;28;20108;-72
2023/10/10 05:46:03;;;;;;;3.70;2.00;;;;;;;15.11;100.00;100993.47;5176186;28;20083;-73
2023/10/10 05:48:35;;;;;;;3.90;2.05;;;;;;;15.14;100.00;100994.16;5188779;28;20025;-72
2023/10/10 05:51:08;;;;;;;6.43;2.55;;;;;;;15.17;100.00;100994.03;5193108;28;20030;-73
2023/10/10 05:53:39;;;;;;;5.20;2.50;;;;;;;15.12;100.00;100993.41;5191273;28;20116;-72
2023/10/10 05:56:12;;;;;;;7.35;2.03;;;;;;;15.13;100.00;100988.97;5191679;28;20029;-73
2023/10/10 05:58:43;;;;;;;12.00;3.28;;;;;;;15.16;100.00;100996.75;5191849;28;20025;-72
2023/10/10 06:01:14;;;;;;;6.28;2.13;;;;;;;15.15;100.00;101008.22;5177865;28;20052;-72
2023/10/10 06:03:45;;;;;;;6.30;2.20;;;;;;;15.16;100.00;101002.84;5193959;28;20395;-72
2023/10/10 06:06:18;;;;;;;5.35;2.63;;;;;;;15.12;100.00;101014.47;5193847;28;20507;-72
2023/10/10 06:09:00;;;;;;;7.93;2.55;;;;;;;15.12;100.00;101021.50;5194725;28;20029;-72
2023/10/10 06:11:32;;;;;;;4.50;2.28;;;;;;;15.17;100.00;101014.25;5187701;28;20100;-72
2023/10/10 06:14:04;;;;;;;7.13;2.75;;;;;;;15.17;100.00;101011.63;5192294;28;20682;-72
2023/10/10 06:16:34;;;;;;;8.52;2.45;;;;;;;15.19;100.00;101010.59;5177860;28;20493;-72
2023/10/10 06:19:04;;;;;;;4.82;2.35;;;;;;;15.21;100.00;101016.63;5191534;28;20109;-72
2023/10/10 06:21:35;;;;;;;7.00;2.75;;;;;;;15.25;100.00;101020.88;5193486;28;20124;-72
2023/10/10 06:24:08;;;;;;;17.58;2.40;;;;;;;15.21;100.00;101035.06;5192019;28;20060;-72
2023/10/10 06:26:45;;;;;;;4.75;1.92;;;;;;;15.22;100.00;101026.25;5174233;28;20048;-71
2023/10/10 06:29:16;;;;;;;8.93;2.65;;;;;;;15.34;100.00;101035.41;5195414;28;20057;-72
2023/10/10 06:31:47;;;;;;;6.50;2.67;;;;;;;15.42;100.00;101028.84;5194430;28;20448;-72
2023/10/10 06:34:22;;;;;;;7.13;2.20;;;;;;;15.38;100.00;101032.53;5177757;28;20111;-73
2023/10/10 06:36:54;;;;;;;4.67;2.17;;;;;;;15.43;100.00;101032.31;5191648;28;20029;-72
2023/10/10 06:39:32;;;;;;;7.38;2.75;;;;;;;15.32;100.00;101032.84;5192785;28;20064;-71
2023/10/10 06:42:03;;;;;;;4.05;2.33;;;;;;;15.32;100.00;101038.09;5195874;28;20105;-73
2023/10/10 06:44:35;;;;;;;4.93;2.72;;;;;;;15.31;100.00;101033.75;5198790;28;20021;-72
2023/10/10 06:47:08;;;;;;;3.67;2.40;;;;;;;15.34;100.00;101030.97;5196598;28;20030;-72
2023/10/10 06:49:53;;;;;;;5.70;2.90;;;;;;;15.40;100.00;101030.66;5198023;28;20276;-71
2023/10/10 06:52:24;;;;;;;5.68;2.40;;;;;;;15.43;100.00;101037.59;5190515;28;20028;-72
2023/10/10 06:54:57;;;;;;;5.25;2.50;;;;;;;15.45;100.00;101038.38;5177072;28;20034;-72
2023/10/10 06:57:41;;;;;;;8.80;2.72;;;;;;;15.48;100.00;101028.53;5197454;28;20029;-72
2023/10/10 07:00:28;;;;;;;5.18;2.47;;;;;;;15.54;100.00;101022.97;5197374;28;20430;-73
2023/10/10 07:02:59;;;;;;;4.80;2.60;;;;;;;15.59;100.00;101033.28;5197328;28;20490;-72
2023/10/10 07:05:33;;;;;;;6.00;2.88;;;;;;;15.60;100.00;101035.84;5198938;28;20513;-73
2023/10/10 07:08:13;;;;;;;5.22;2.83;;;;;;;15.71;100.00;101035.34;5198554;28;20026;-73
2023/10/10 07:10:45;;;;;;;4.53;2.63;;;;;;;15.71;100.00;101032.69;5197139;28;20651;-73
2023/10/10 07:13:19;;;;;;;6.20;2.50;;;;;;;15.75;100.00;101035.13;5197289;28;20124;-74
2023/10/10 07:15:52;;;;;;;10.07;2.83;;;;;;;15.67;100.00;101031.16;5195675;28;20039;-72
2023/10/10 07:18:22;;;;;;;6.40;2.88;;;;;;;15.77;100.00;101030.63;5197688;28;20506;-73
2023/10/10 07:21:06;;;;;;;5.32;2.47;;;;;;;15.79;100.00;101033.16;5194714;28;20028;-73
2023/10/10 07:23:38;;;;;;;7.55;2.90;;;;;;;15.88;100.00;101044.09;5192958;28;20027;-73
2023/10/10 07:26:20;;;;;;;6.43;3.10;;;;;;;15.94;100.00;101033.25;5196404;28;20083;-72
2023/10/10 07:28:54;;;;;;;8.23;2.70;;;;;;;16.01;100.00;101031.19;5197524;28;20506;-72
2023/10/10 07:31:24;;;;;;;7.18;2.53;;;;;;;16.11;100.00;101024.50;5188602;28;20372;-72
2023/10/10 07:34:04;;;;;;;5.97;2.58;;;;;;;16.29;100.00;101027.06;5197343;28;20108;-72
2023/10/10 07:36:34;;;;;;;6.32;2.75;;;;;;;16.41;100.00;101030.88;5198659;28;20437;-73
2023/10/10 07:41:57;;;;;;;4.32;2.10;;;;;;;16.50;100.00;101031.22;5195378;28;20083;-72
2023/10/10 07:44:30;;;;;;;5.07;3.00;;;;;;;16.74;100.00;101034.38;5162191;28;20033;-72
2023/10/10 07:49:40;;;;;;;3.97;2.10;;;;;;;17.13;100.00;101028.63;5197441;28;20137;-73
2023/10/10 07:52:16;;;;;;;5.45;2.63;;;;;;;17.24;100.00;101028.03;5196932;28;20029;-73
2023/10/10 07:54:51;;;;;;;4.80;2.58;;;;;;;17.57;100.00;101021.75;5191690;28;20026;-72
2023/10/10 07:57:22;;;;;;;4.25;2.33;;;;;;;17.65;100.00;101016.03;5197707;28;20018;-73
2023/10/10 07:59:55;;;;;;;5.97;2.67;;;;;;;17.71;100.00;101013.00;5196961;28;20033;-72
2023/10/10 08:02:31;;;;;;;5.80;2.75;;;;;;;17.47;100.00;101020.56;5188901;28;20044;-72
2023/10/10 08:05:09;;;;;;;8.52;2.45;;;;;;;17.43;100.00;101023.44;5197300;28;20112;-73
2023/10/10 08:07:39;;;;;;;6.80;2.58;;;;;;;17.49;100.00;101018.66;5197617;28;20025;-73
2023/10/10 08:13:00;;;;;;;6.63;2.85;;;;;;;17.66;100.00;101017.72;5194536;28;20373;-72
2023/10/10 08:15:30;;;;;;;5.28;2.40;;;;;;;17.75;100.00;101011.88;5196429;28;20044;-73
2023/10/10 08:18:01;;;;;;;4.30;2.55;;;;;;;17.75;100.00;101009.25;5197041;28;20037;-74
2023/10/10 08:20:34;;;;;;;4.53;2.63;;;;;;;17.98;100.00;101020.19;5197427;28;20025;-73
2023/10/10 08:23:05;;;;;;;5.45;2.80;;;;;;;17.93;100.00;101013.47;5194905;28;20022;-73
2023/10/10 08:25:38;;;;;;;7.35;2.58;;;;;;;18.04;100.00;101014.53;5196971;28;20108;-73
2023/10/10 08:28:09;;;;;;;3.47;2.50;;;;;;;18.18;100.00;101019.03;5195568;28;20029;-73
2023/10/10 08:30:39;;;;;;;5.80;2.75;;;;;;;17.81;100.00;101024.78;5196616;28;20033;-73
2023/10/10 08:33:09;;;;;;;7.72;2.97;;;;;;;17.80;100.00;101033.66;5196144;28;20541;-73
2023/10/10 08:35:39;;;;;;;6.07;2.63;;;;;;;17.72;100.00;101035.88;5196674;28;20030;-72
2023/10/10 08:38:13;;;;;;;5.68;2.90;;;;;;;17.43;100.00;101028.72;5178778;28;20493;-73
2023/10/10 08:40:43;;;;;;;6.72;2.92;;;;;;;17.38;100.00;101036.06;5196741;28;20829;-72
2023/10/10 08:43:14;;;;;;;4.68;2.80;;;;;;;17.38;100.00;101036.94;5195766;28;20534;-73
2023/10/10 08:45:49;;;;;;;7.45;3.00;;;;;;;17.32;100.00;101037.22;5196380;28;20038;-73
2023/10/10 08:48:26;;;;;;;7.55;3.00;;;;;;;17.26;100.00;101047.28;5195638;28;20029;-73
2023/10/10 08:51:03;;;;;;;8.82;2.90;;;;;;;17.20;100.00;101037.06;5195567;28;20032;-72
2023/10/10 08:53:38;;;;;;;8.15;3.63;;;;;;;17.33;100.00;101027.53;5196436;28;20126;-73
2023/10/10 08:56:08;;;;;;;8.18;3.38;;;;;;;17.50;100.00;101020.38;5192369;28;20456;-73
2023/10/10 08:58:38;;;;;;;4.90;3.28;;;;;;;17.87;100.00;101013.84;5196021;28;20056;-73
2023/10/10 09:01:09;;;;;;;5.20;2.90;;;;;;;17.94;100.00;101015.16;5178532;28;20097;-73
2023/10/10 09:03:45;;;;;;;6.47;3.25;;;;;;;18.10;100.00;101021.25;5189315;28;20493;-73
2023/10/10 09:06:19;;;;;;;6.57;3.25;;;;;;;18.60;100.00;101019.09;5168998;28;20033;-73
2023/10/10 09:08:52;;;;;;;4.90;3.20;;;;;;;18.67;100.00;101007.19;5187104;28;20210;-73
2023/10/10 09:11:23;;;;;;;8.05;3.70;;;;;;;18.80;100.00;101012.47;5167743;28;20104;-74
2023/10/10 09:13:53;;;;;;;6.47;3.00;;;;;;;18.92;100.00;100998.47;5169066;28;20495;-73
2023/10/10 09:16:41;;;;;;;8.75;3.70;;;;;;;18.83;100.00;101006.13;5169060;28;20108;-73
2023/10/10 09:19:11;;;;;;;5.78;3.15;;;;;;;18.70;100.00;101007.00;5167992;28;20429;-73
2023/10/10 09:21:50;;;;;;;7.00;3.28;;;;;;;18.82;100.00;101007.97;5187044;28;20044;-73
2023/10/10 09:24:31;;;;;;;7.75;3.65;;;;;;;18.38;100.00;101010.75;5167409;28;20446;-73
2023/10/10 09:27:16;;;;;;;10.82;3.80;;;;;;;18.38;100.00;101022.19;5170577;28;20479;-72
2023/10/10 09:29:54;;;;;;;4.93;2.90;;;;;;;18.73;100.00;101016.47;5187082;28;20029;-73
2023/10/10 09:32:36;;;;;;;7.22;3.47;;;;;;;18.66;100.00;101021.38;5181960;28;20022;-71
2023/10/10 09:35:06;;;;;;;5.97;3.13;;;;;;;18.91;100.00;101022.41;5184547;28;20025;-73
2023/10/10 09:37:41;;;;;;;6.65;3.40;;;;;;;19.11;100.00;101020.19;5161749;28;20045;-73
2023/10/10 09:40:15;;;;;;;6.13;3.13;;;;;;;19.29;100.00;101020.88;5167337;28;20364;-73
2023/10/10 09:45:52;;;;;;;6.18;3.03;;;;;;;18.81;100.00;101006.25;5195683;28;20029;-73
2023/10/10 09:48:46;;;;;;;8.65;2.65;;;;;;;19.23;100.00;100997.38;5191243;28;20025;-73
2023/10/10 09:54:16;;;;;;;5.35;3.10;;;;;;;18.94;100.00;101009.81;5186415;28;20399;-72
2023/10/10 09:56:48;;;;;;;8.00;3.60;;;;;;;19.07;100.00;101001.97;5192633;28;20213;-74
2023/10/10 09:59:21;;;;;;;8.07;3.20;;;;;;;18.85;100.00;101001.59;5195237;28;20033;-73
2023/10/10 10:01:59;;;;;;;8.27;2.85;;;;;;;18.78;100.00;101011.72;5176052;28;20029;-72
2023/10/10 10:04:37;;;;;;;4.85;2.90;;;;;;;18.83;100.00;101008.78;5185253;28;20025;-73
2023/10/10 10:07:27;;;;;;;5.00;2.40;;;;;;;18.88;100.00;101006.69;5191552;28;20053;-73
2023/10/10 10:10:12;;;;;;;7.65;3.42;;;;;;;19.23;100.00;101003.56;5190733;28;20028;-72
2023/10/10 10:13:21;;;;;;;6.03;2.72;;;;;;;19.61;100.00;101003.72;5191679;28;20084;-73
2023/10/10 10:16:25;;;;;;;8.02;2.92;;;;;;;19.61;100.00;101009.03;5182668;28;20033;-73
2023/10/10 10:19:11;;;;;;;6.03;2.72;;;;;;;19.39;100.00;101009.56;5191277;28;20073;-73
2023/10/10 10:22:23;;;;;;;7.13;3.30;;;;;;;19.44;100.00;101010.13;5192157;28;20479;-73
2023/10/10 10:24:46;;;;;;;6.40;2.95;;;;;;;19.31;100.00;101022.47;5188864;28;20033;-73
2023/10/10 10:27:24;;;;;;;6.45;2.90;;;;;;;19.46;100.00;101020.63;5197202;28;20560;-73
2023/10/10 10:32:55;;;;;;;5.50;2.67;;;;;;;19.44;100.00;101017.25;5193014;28;20037;-73
2023/10/10 10:35:45;;;;;;;6.30;2.83;;;;;;;19.47;100.00;101025.81;5176332;28;20049;-73
2023/10/10 10:38:24;;;;;;;7.00;2.90;;;;;;;19.58;100.00;101015.38;5191120;28;20601;-73
2023/10/10 10:41:07;;;;;;;5.97;2.85;;;;;;;19.56;100.00;101017.28;5188985;28;20292;-73
2023/10/10 10:43:42;;;;;;;6.80;2.80;;;;;;;19.72;100.00;101009.16;5195376;28;20027;-73
2023/10/10 10:46:14;;;;;;;9.52;3.00;;;;;;;19.66;100.00;101007.78;5194370;28;20528;-73
2023/10/10 10:48:54;;;;;;;6.47;3.00;;;;;;;19.61;100.00;101001.06;5193899;28;20044;-73
2023/10/10 10:51:26;;;;;;;5.47;2.72;;;;;;;19.72;100.00;101001.19;5195962;28;20025;-73
2023/10/10 10:53:58;;;;;;;7.85;3.03;;;;;;;19.79;100.00;101003.34;5179491;28;20104;-73
2023/10/10 10:59:19;;;;;;;7.30;2.80;;;;;;;19.57;100.00;100997.75;5187766;28;20038;-73
2023/10/10 11:01:57;;;;;;;5.78;2.75;;;;;;;19.46;100.00;101002.06;5195271;28;20029;-73
2023/10/10 11:07:07;;;;;;;8.43;3.20;;;;;;;19.82;100.00;100997.00;5195615;28;20201;-72
2023/10/10 11:09:42;;;;;;;9.18;3.00;;;;;;;19.85;100.00;100992.34;5198471;28;20029;-73
2023/10/10 11:12:13;;;;;;;10.20;3.20;;;;;;;19.82;100.00;100986.38;5195357;28;20391;-73
2023/10/10 11:14:45;;;;;;;6.45;3.20;;;;;;;19.89;100.00;100992.97;5186233;28;20057;-73
2023/10/10 11:17:17;;;;;;;7.30;2.97;;;;;;;19.93;100.00;100990.00;5168815;28;20402;-73
2023/10/10 11:19:57;;;;;;;7.55;2.67;;;;;;;20.01;100.00;100994.81;5185770;28;20059;-73
2023/10/10 11:22:39;;;;;;;8.15;2.78;;;;;;;19.84;100.00;100990.66;5185433;28;20104;-73
2023/10/10 11:25:11;;;;;;;6.90;3.05;;;;;;;19.89;100.00;100993.84;5175328;28;20033;-73
2023/10/10 11:27:44;;;;;;;8.07;3.22;;;;;;;19.82;100.00;100981.91;5190066;28;20087;-73
2023/10/10 11:30:24;;;;;;;5.85;2.60;;;;;;;19.90;100.00;100976.09;5194746;28;20379;-73
2023/10/10 11:33:16;;;;;;;6.40;2.78;;;;;;;19.72;100.00;100969.38;5193415;28;20037;-73
2023/10/10 11:35:59;;;;;;;7.05;3.10;;;;;;;19.65;100.00;100968.91;5195511;28;20041;-73
2023/10/10 11:38:36;;;;;;;7.65;3.15;;;;;;;19.77;100.00;100967.28;5193220;28;20430;-73
2023/10/10 11:41:08;;;;;;;5.72;3.15;;;;;;;19.55;100.00;100961.69;5193125;28;20474;-72
2023/10/10 11:44:01;;;;;;;6.88;3.30;;;;;;;19.56;100.00;100969.56;5195193;28;20017;-73
2023/10/10 11:46:33;;;;;;;8.15;3.40;;;;;;;19.63;100.00;100960.22;5178165;28;20021;-73
2023/10/10 11:49:03;;;;;;;8.70;3.40;;;;;;;19.55;100.00;100959.91;5174962;28;20117;-73
2023/10/10 11:51:38;;;;;;;8.82;3.80;;;;;;;19.61;100.00;100948.88;5189125;28;20501;-73
2023/10/10 11:54:08;;;;;;;10.48;4.10;;;;;;;19.76;100.00;100945.19;5195571;28;20032;-72
2023/10/10 11:56:38;;;;;;;9.93;5.05;;;;;;;19.84;100.00;100939.38;5195442;28;20030;-73
2023/10/10 11:59:14;;;;;;;13.00;5.43;;;;;;;19.87;100.00;100928.53;5197005;28;20037;-73
2023/10/10 12:01:49;;;;;;;7.45;4.57;;;;;;;19.96;100.00;100931.41;5192873;28;20117;-73
2023/10/10 12:04:20;;;;;;;13.20;6.10;;;;;;;19.97;100.00;100937.59;5194643;28;20056;-74
2023/10/10 12:06:55;;;;;;;18.30;6.05;;;;;;;20.06;100.00;100937.84;5194871;28;20453;-73
2023/10/10 12:09:29;;;;;;;8.73;5.03;;;;;;;20.11;100.00;100938.38;5184009;28;20033;-72
2023/10/10 12:12:01;;;;;;;9.60;5.22;;;;;;;20.03;100.00;100927.44;5166334;28;20033;-73
2023/10/10 12:14:32;;;;;;;8.13;5.05;;;;;;;19.92;100.00;100923.78;5194138;28;20036;-73
2023/10/10 12:17:05;;;;;;;9.18;4.65;;;;;;;20.04;100.00;100923.84;5196423;28;20025;-73
2023/10/10 12:19:36;;;;;;;9.25;5.50;;;;;;;20.22;100.00;100914.59;5191668;28;20026;-73
2023/10/10 12:22:13;;;;;;;11.32;5.43;;;;;;;20.31;100.00;100899.81;5175916;28;20079;-73
2023/10/10 12:24:44;;;;;;;12.18;5.07;;;;;;;20.35;100.00;100904.81;5191882;28;20025;-73
2023/10/10 12:27:14;;;;;;;10.90;5.50;;;;;;;20.31;100.00;100905.97;5192715;28;20087;-73
2023/10/10 12:29:47;;;;;;;8.02;5.13;;;;;;;20.23;100.00;100903.03;5191635;28;20290;-73
2023/10/10 12:32:22;;;;;;;10.13;5.47;;;;;;;20.15;100.00;100888.59;5194514;28;20081;-73
2023/10/10 12:34:52;;;;;;;10.30;5.55;;;;;;;20.13;100.00;100882.53;5195629;28;20030;-73
2023/10/10 12:37:23;;;;;;;10.30;6.13;;;;;;;19.90;100.00;100883.22;5194409;28;20138;-72
2023/10/10 12:39:53;;;;;;;11.63;6.25;;;;;;;19.79;100.00;100881.31;5194834;28;20033;-72
2023/10/10 12:42:23;;;;;;;10.15;5.85;;;;;;;19.77;100.00;100877.09;5196312;28;20025;-73
2023/10/10 12:44:54;;;;;;;11.90;5.72;;;;;;;19.69;100.00;100869.66;5189258;28;20499;-73
2023/10/10 12:47:24;;;;;;;9.95;6.05;;;;;;;19.54;100.00;100865.38;5193197;28;20033;-72
2023/10/10 12:50:00;;;;;;;13.90;6.65;;;;;;;19.44;100.00;100855.50;5197890;28;20033;-73
2023/10/10 12:52:45;;;;;;;12.63;6.00;;;;;;;19.36;100.00;100849.84;5193581;28;20037;-73
2023/10/10 12:55:16;;;;;;;15.43;7.00;;;;;;;19.28;100.00;100855.66;5189462;28;20025;-73
2023/10/10 12:57:48;;;;;;;10.05;6.72;;;;;;;19.26;100.00;100854.09;5176282;28;20028;-73
2023/10/10 13:00:24;;;;;;;10.82;7.05;;;;;;;19.19;100.00;100856.28;5196265;28;20033;-73
2023/10/10 13:02:54;;;;;;;11.68;7.00;;;;;;;19.26;100.00;100846.97;5192371;28;20514;-72
2023/10/10 13:05:28;;;;;;;11.07;6.78;;;;;;;19.27;100.00;100853.97;5186261;28;20029;-72
2023/10/10 13:07:59;;;;;;;12.38;6.88;;;;;;;19.41;100.00;100842.47;5191365;28;20499;-73
2023/10/10 13:10:32;;;;;;;10.77;6.13;;;;;;;19.29;100.00;100835.31;5193990;28;20064;-73
2023/10/10 13:13:07;;;;;;;9.77;6.20;;;;;;;19.20;100.00;100839.44;5175154;28;20402;-73
2023/10/10 13:15:47;;;;;;;12.03;6.93;;;;;;;19.10;100.00;100833.00;5177638;28;20037;-73
2023/10/10 13:18:22;;;;;;;8.68;5.97;;;;;;;19.07;100.00;100830.56;5195192;28;20029;-73
2023/10/10 13:20:53;;;;;;;12.68;6.82;;;;;;;19.02;100.00;100824.72;5176727;28;20087;-73
2023/10/10 13:23:24;;;;;;;12.95;7.25;;;;;;;19.01;100.00;100812.44;5173619;28;20386;-72
2023/10/10 13:25:54;;;;;;;11.48;7.00;;;;;;;18.98;100.00;100811.78;5189699;28;20033;-73
2023/10/10 13:28:24;;;;;;;11.55;6.97;;;;;;;18.95;100.00;100807.50;5193932;28;20056;-72
2023/10/10 13:30:55;;;;;;;11.25;7.30;;;;;;;19.00;100.00;100810.72;5195716;28;20033;-72
2023/10/10 13:33:26;;;;;;;16.00;8.02;;;;;;;19.09;100.00;100803.97;5193820;28;20018;-72
2023/10/10 13:35:56;;;;;;;12.88;7.68;;;;;;;19.12;100.00;100807.25;5195964;28;20033;-74
2023/10/10 13:38:26;;;;;;;12.65;8.30;;;;;;;19.23;100.00;100804.78;5193282;28;20033;-73
2023/10/10 13:41:01;;;;;;;11.73;7.80;;;;;;;19.33;100.00;100795.25;5195956;28;20025;-73
2023/10/10 13:43:31;;;;;;;15.80;8.43;;;;;;;19.52;100.00;100792.19;5177045;28;20017;-73
2023/10/10 13:46:02;;;;;;;12.35;7.57;;;;;;;19.66;100.00;100778.81;5191256;28;20116;-73
2023/10/10 13:48:36;;;;;;;14.38;8.55;;;;;;;19.81;100.00;100789.19;5172066;28;20467;-73
2023/10/10 13:51:10;;;;;;;11.60;6.70;;;;;;;19.95;100.00;100789.09;5190028;28;20200;-73
2023/10/10 13:53:43;;;;;;;12.02;6.40;;;;;;;20.06;100.00;100778.59;5188570;28;20492;-73
2023/10/10 13:56:17;;;;;;;12.15;6.47;;;;;;;20.20;100.00;100781.13;5188932;28;20510;-73
2023/10/10 13:58:48;;;;;;;11.00;6.47;;;;;;;20.31;100.00;100791.81;5198307;28;20033;-73
2023/10/10 14:01:54;;;;;;;10.60;6.25;;;;;;;20.33;100.00;100781.09;5181537;28;20490;-73
2023/10/10 14:04:26;;;;;;;9.75;6.00;;;;;;;20.35;100.00;100774.72;5197616;28;20404;-73
2023/10/10 14:07:00;;;;;;;11.30;5.55;;;;;;;20.28;100.00;100767.31;5178199;28;20057;-72
2023/10/10 14:09:31;;;;;;;10.50;5.40;;;;;;;20.37;100.00;100777.25;5197778;28;20293;-73
2023/10/10 14:12:02;;;;;;;8.27;4.85;;;;;;;20.31;100.00;100778.53;5197081;28;20124;-73
2023/10/10 14:14:33;;;;;;;10.25;4.90;;;;;;;20.55;100.00;100758.16;5188972;28;20498;-73
2023/10/10 14:17:03;;;;;;;10.73;5.55;;;;;;;20.37;100.00;100767.47;5175960;28;20026;-73